PWSweather.com
Personal Weather Stations
Station Observations
IBAVARIA50
Munich, PlieningDE 85652

MunichPlieningDE 85652

Lat: 48.19916153, Lon: 11.79794312

Elevation: 504

Station Type: Davis Vantage Pro2

http://wetterstation-pliening.info

High Low Average
Temperature 57.2°F14.0°C 39.1°F3.9°C 48.3°F9.1°C
Dew Point 50.2°F10.1°C 34.9°F1.6°C 38.3°F3.5°C
Winds 27.0 mph 43.5 kmh Calm Calm 7.0 mph S11.3 kmh S
Wind Gusts 35.0 mph56.3 kmh 1.0 mph1.6 kmh 14.0 mph22.5 kmh
Humidity 88% 48% 69%
Pressure 29.91 in1012.9 mb 29.08 in984.8 mb -
Precipitation 0.00 in0.0 mm - -
Hour Temp Dew Point Humidity Winds Wind Gusts Pressure Precip Precip Rate Daily Precip Total
12:00 AM 53.7°F12.1°C 50.2°F10.1°C 88% 8.0 mph SE12.9 kmh SE 14.0 mph22.5 kmh 29.09 in985.1 mb 0.00 in0.0 mm 0.00 in0.0 mm 0.00 in0.0 mm
12:05 AM 53.9°F12.2°C 50.1°F10.1°C 87% 4.0 mph SE6.4 kmh SE 12.0 mph19.3 kmh 29.10 in985.4 mb 0.00 in0.0 mm 0.00 in0.0 mm 0.00 in0.0 mm
12:10 AM 54.0°F12.2°C 49.9°F9.9°C 86% 3.0 mph SE4.8 kmh SE 10.0 mph16.1 kmh 29.10 in985.4 mb 0.00 in0.0 mm 0.00 in0.0 mm 0.00 in0.0 mm
12:15 AM 54.2°F12.3°C 49.4°F9.7°C 84% 2.0 mph SE3.2 kmh SE 12.0 mph19.3 kmh 29.10 in985.4 mb 0.00 in0.0 mm 0.00 in0.0 mm 0.00 in0.0 mm
12:20 AM 54.4°F12.4°C 49.0°F9.4°C 82% 13.0 mph SE20.9 kmh SE 16.0 mph25.7 kmh 29.10 in985.4 mb 0.00 in0.0 mm 0.00 in0.0 mm 0.00 in0.0 mm
12:25 AM 55.3°F12.9°C 48.2°F9.0°C 77% 7.0 mph SSE11.3 kmh SSE 20.0 mph32.2 kmh 29.11 in985.8 mb 0.00 in0.0 mm 0.00 in0.0 mm 0.00 in0.0 mm
12:30 AM 56.2°F13.4°C 47.2°F8.4°C 72% 15.0 mph SE24.1 kmh SE 22.0 mph35.4 kmh 29.10 in985.4 mb 0.00 in0.0 mm 0.00 in0.0 mm 0.00 in0.0 mm
12:35 AM 56.7°F13.7°C 47.0°F8.3°C 70% 11.0 mph SE17.7 kmh SE 21.0 mph33.8 kmh 29.10 in985.4 mb 0.00 in0.0 mm 0.00 in0.0 mm 0.00 in0.0 mm
12:40 AM 56.6°F13.7°C 46.9°F8.3°C 70% 13.0 mph S20.9 kmh S 17.0 mph27.4 kmh 29.10 in985.4 mb 0.00 in0.0 mm 0.00 in0.0 mm 0.00 in0.0 mm
12:45 AM 56.1°F13.4°C 46.4°F8.0°C 70% 10.0 mph SSW16.1 kmh SSW 16.0 mph25.7 kmh 29.10 in985.4 mb 0.00 in0.0 mm 0.00 in0.0 mm 0.00 in0.0 mm
12:50 AM 55.7°F13.2°C 46.0°F7.8°C 70% 11.0 mph S17.7 kmh S 21.0 mph33.8 kmh 29.11 in985.8 mb 0.00 in0.0 mm 0.00 in0.0 mm 0.00 in0.0 mm
12:55 AM 55.4°F13.0°C 45.3°F7.4°C 69% 16.0 mph SSE25.7 kmh SSE 18.0 mph29.0 kmh 29.11 in985.8 mb 0.00 in0.0 mm 0.00 in0.0 mm 0.00 in0.0 mm
01:00 AM 55.1°F12.8°C 44.7°F7.1°C 68% 11.0 mph S17.7 kmh S 17.0 mph27.4 kmh 29.12 in986.1 mb 0.00 in0.0 mm 0.00 in0.0 mm 0.00 in0.0 mm
01:05 AM 55.2°F12.9°C 44.8°F7.1°C 68% 14.0 mph S22.5 kmh S 19.0 mph30.6 kmh 29.12 in986.1 mb 0.00 in0.0 mm 0.00 in0.0 mm 0.00 in0.0 mm
01:10 AM 55.0°F12.8°C 45.0°F7.2°C 69% 12.0 mph SSE19.3 kmh SSE 17.0 mph27.4 kmh 29.12 in986.1 mb 0.00 in0.0 mm 0.00 in0.0 mm 0.00 in0.0 mm
01:15 AM 54.8°F12.7°C 44.4°F6.9°C 68% 7.0 mph SSE11.3 kmh SSE 17.0 mph27.4 kmh 29.12 in986.1 mb 0.00 in0.0 mm 0.00 in0.0 mm 0.00 in0.0 mm
01:20 AM 54.9°F12.7°C 43.7°F6.5°C 66% 7.0 mph S11.3 kmh S 20.0 mph32.2 kmh 29.12 in986.1 mb 0.00 in0.0 mm 0.00 in0.0 mm 0.00 in0.0 mm
01:25 AM 55.3°F12.9°C 43.7°F6.5°C 65% 10.0 mph SE16.1 kmh SE 16.0 mph25.7 kmh 29.13 in986.5 mb 0.00 in0.0 mm 0.00 in0.0 mm 0.00 in0.0 mm
01:30 AM 55.4°F13.0°C 43.8°F6.6°C 65% 8.0 mph SE12.9 kmh SE 16.0 mph25.7 kmh 29.13 in986.5 mb 0.00 in0.0 mm 0.00 in0.0 mm 0.00 in0.0 mm
01:35 AM 55.9°F13.3°C 42.6°F5.9°C 61% 11.0 mph SSE17.7 kmh SSE 20.0 mph32.2 kmh 29.12 in986.1 mb 0.00 in0.0 mm 0.00 in0.0 mm 0.00 in0.0 mm
01:40 AM 56.3°F13.5°C 42.1°F5.6°C 59% 16.0 mph S25.7 kmh S 21.0 mph33.8 kmh 29.12 in986.1 mb 0.00 in0.0 mm 0.00 in0.0 mm 0.00 in0.0 mm
01:45 AM 56.2°F13.4°C 42.0°F5.6°C 59% 14.0 mph SE22.5 kmh SE 21.0 mph33.8 kmh 29.12 in986.1 mb 0.00 in0.0 mm 0.00 in0.0 mm 0.00 in0.0 mm
01:50 AM 56.2°F13.4°C 42.4°F5.8°C 60% 13.0 mph S20.9 kmh S 19.0 mph30.6 kmh 29.11 in985.8 mb 0.00 in0.0 mm 0.00 in0.0 mm 0.00 in0.0 mm
01:55 AM 56.0°F13.3°C 41.8°F5.4°C 59% 9.0 mph S14.5 kmh S 25.0 mph40.2 kmh 29.11 in985.8 mb 0.00 in0.0 mm 0.00 in0.0 mm 0.00 in0.0 mm
02:00 AM 55.8°F13.2°C 41.6°F5.3°C 59% 12.0 mph E19.3 kmh E 26.0 mph41.8 kmh 29.10 in985.4 mb 0.00 in0.0 mm 0.00 in0.0 mm 0.00 in0.0 mm
02:05 AM 55.9°F13.3°C 41.3°F5.2°C 58% 14.0 mph SE22.5 kmh SE 22.0 mph35.4 kmh 29.10 in985.4 mb 0.00 in0.0 mm 0.00 in0.0 mm 0.00 in0.0 mm
02:10 AM 56.1°F13.4°C 41.0°F5.0°C 57% 5.0 mph SE8.0 kmh SE 27.0 mph43.5 kmh 29.10 in985.4 mb 0.00 in0.0 mm 0.00 in0.0 mm 0.00 in0.0 mm
02:15 AM 56.6°F13.7°C 40.1°F4.5°C 54% 16.0 mph SE25.7 kmh SE 24.0 mph38.6 kmh 29.11 in985.8 mb 0.00 in0.0 mm 0.00 in0.0 mm 0.00 in0.0 mm
02:20 AM 56.8°F13.8°C 39.8°F4.3°C 53% 15.0 mph SE24.1 kmh SE 27.0 mph43.5 kmh 29.11 in985.8 mb 0.00 in0.0 mm 0.00 in0.0 mm 0.00 in0.0 mm
02:25 AM 56.6°F13.7°C 40.6°F4.8°C 55% 10.0 mph SE16.1 kmh SE 22.0 mph35.4 kmh 29.12 in986.1 mb 0.00 in0.0 mm 0.00 in0.0 mm 0.00 in0.0 mm
02:30 AM 55.9°F13.3°C 40.4°F4.7°C 56% 13.0 mph ESE20.9 kmh ESE 25.0 mph40.2 kmh 29.13 in986.5 mb 0.00 in0.0 mm 0.00 in0.0 mm 0.00 in0.0 mm
02:35 AM 55.9°F13.3°C 39.9°F4.4°C 55% 16.0 mph ESE25.7 kmh ESE 25.0 mph40.2 kmh 29.14 in986.8 mb 0.00 in0.0 mm 0.00 in0.0 mm 0.00 in0.0 mm
02:40 AM 56.3°F13.5°C 39.3°F4.1°C 53% 11.0 mph SSW17.7 kmh SSW 25.0 mph40.2 kmh 29.14 in986.8 mb 0.00 in0.0 mm 0.00 in0.0 mm 0.00 in0.0 mm
02:45 AM 56.6°F13.7°C 38.6°F3.7°C 51% 10.0 mph SE16.1 kmh SE 21.0 mph33.8 kmh 29.15 in987.1 mb 0.00 in0.0 mm 0.00 in0.0 mm 0.00 in0.0 mm
02:50 AM 57.0°F13.9°C 38.5°F3.6°C 50% 13.0 mph S20.9 kmh S 25.0 mph40.2 kmh 29.15 in987.1 mb 0.00 in0.0 mm 0.00 in0.0 mm 0.00 in0.0 mm
02:55 AM 57.2°F14.0°C 38.7°F3.7°C 50% 17.0 mph ESE27.4 kmh ESE 28.0 mph45.1 kmh 29.15 in987.1 mb 0.00 in0.0 mm 0.00 in0.0 mm 0.00 in0.0 mm
03:00 AM 57.2°F14.0°C 38.2°F3.4°C 49% 6.0 mph SE9.7 kmh SE 22.0 mph35.4 kmh 29.15 in987.1 mb 0.00 in0.0 mm 0.00 in0.0 mm 0.00 in0.0 mm
03:05 AM 57.0°F13.9°C 39.0°F3.9°C 51% 10.0 mph SE16.1 kmh SE 18.0 mph29.0 kmh 29.15 in987.1 mb 0.00 in0.0 mm 0.00 in0.0 mm 0.00 in0.0 mm
03:10 AM 56.6°F13.7°C 39.1°F3.9°C 52% 10.0 mph SE16.1 kmh SE 21.0 mph33.8 kmh 29.14 in986.8 mb 0.00 in0.0 mm 0.00 in0.0 mm 0.00 in0.0 mm
03:15 AM 56.2°F13.4°C 39.2°F4.0°C 53% 4.0 mph SE6.4 kmh SE 21.0 mph33.8 kmh 29.14 in986.8 mb 0.00 in0.0 mm 0.00 in0.0 mm 0.00 in0.0 mm
03:20 AM 56.1°F13.4°C 38.7°F3.7°C 52% 5.0 mph SSE8.0 kmh SSE 19.0 mph30.6 kmh 29.13 in986.5 mb 0.00 in0.0 mm 0.00 in0.0 mm 0.00 in0.0 mm
03:25 AM 55.8°F13.2°C 38.4°F3.6°C 52% 13.0 mph S20.9 kmh S 18.0 mph29.0 kmh 29.12 in986.1 mb 0.00 in0.0 mm 0.00 in0.0 mm 0.00 in0.0 mm
03:30 AM 56.1°F13.4°C 37.7°F3.2°C 50% 24.0 mph ESE38.6 kmh ESE 30.0 mph48.3 kmh 29.10 in985.4 mb 0.00 in0.0 mm 0.00 in0.0 mm 0.00 in0.0 mm
03:35 AM 57.0°F13.9°C 38.0°F3.3°C 49% 6.0 mph SSE9.7 kmh SSE 33.0 mph53.1 kmh 29.08 in984.8 mb 0.00 in0.0 mm 0.00 in0.0 mm 0.00 in0.0 mm
03:40 AM 56.8°F13.8°C 38.3°F3.5°C 50% 13.0 mph ESE20.9 kmh ESE 29.0 mph46.7 kmh 29.09 in985.1 mb 0.00 in0.0 mm 0.00 in0.0 mm 0.00 in0.0 mm
03:45 AM 56.9°F13.8°C 37.9°F3.3°C 49% 14.0 mph SE22.5 kmh SE 28.0 mph45.1 kmh 29.09 in985.1 mb 0.00 in0.0 mm 0.00 in0.0 mm 0.00 in0.0 mm
03:50 AM 56.6°F13.7°C 38.6°F3.7°C 51% 9.0 mph E14.5 kmh E 25.0 mph40.2 kmh 29.10 in985.4 mb 0.00 in0.0 mm 0.00 in0.0 mm 0.00 in0.0 mm
03:55 AM 56.4°F13.6°C 38.9°F3.8°C 52% 27.0 mph ESE43.5 kmh ESE 33.0 mph53.1 kmh 29.10 in985.4 mb 0.00 in0.0 mm 0.00 in0.0 mm 0.00 in0.0 mm
04:00 AM 56.3°F13.5°C 38.9°F3.8°C 52% 18.0 mph SE29.0 kmh SE 33.0 mph53.1 kmh 29.10 in985.4 mb 0.00 in0.0 mm 0.00 in0.0 mm 0.00 in0.0 mm
04:05 AM 56.3°F13.5°C 38.9°F3.8°C 52% 13.0 mph SSE20.9 kmh SSE 35.0 mph56.3 kmh 29.11 in985.8 mb 0.00 in0.0 mm 0.00 in0.0 mm 0.00 in0.0 mm
04:10 AM 56.1°F13.4°C 38.7°F3.7°C 52% 14.0 mph ESE22.5 kmh ESE 23.0 mph37.0 kmh 29.11 in985.8 mb 0.00 in0.0 mm 0.00 in0.0 mm 0.00 in0.0 mm
04:15 AM 56.0°F13.3°C 38.6°F3.7°C 52% 15.0 mph ESE24.1 kmh ESE 22.0 mph35.4 kmh 29.11 in985.8 mb 0.00 in0.0 mm 0.00 in0.0 mm 0.00 in0.0 mm
04:20 AM 56.1°F13.4°C 37.7°F3.2°C 50% 15.0 mph SSE24.1 kmh SSE 23.0 mph37.0 kmh 29.11 in985.8 mb 0.00 in0.0 mm 0.00 in0.0 mm 0.00 in0.0 mm
04:25 AM 56.6°F13.7°C 38.1°F3.4°C 50% 13.0 mph SE20.9 kmh SE 28.0 mph45.1 kmh 29.11 in985.8 mb 0.00 in0.0 mm 0.00 in0.0 mm 0.00 in0.0 mm
04:30 AM 57.0°F13.9°C 37.5°F3.1°C 48% 11.0 mph SE17.7 kmh SE 30.0 mph48.3 kmh 29.12 in986.1 mb 0.00 in0.0 mm 0.00 in0.0 mm 0.00 in0.0 mm
04:35 AM 57.0°F13.9°C 38.0°F3.3°C 49% 9.0 mph SE14.5 kmh SE 25.0 mph40.2 kmh 29.14 in986.8 mb 0.00 in0.0 mm 0.00 in0.0 mm 0.00 in0.0 mm
04:40 AM 56.5°F13.6°C 38.5°F3.6°C 51% 4.0 mph S6.4 kmh S 21.0 mph33.8 kmh 29.16 in987.5 mb 0.00 in0.0 mm 0.00 in0.0 mm 0.00 in0.0 mm
04:45 AM 56.0°F13.3°C 38.6°F3.7°C 52% 2.0 mph S3.2 kmh S 19.0 mph30.6 kmh 29.18 in988.1 mb 0.00 in0.0 mm 0.00 in0.0 mm 0.00 in0.0 mm
04:50 AM 55.6°F13.1°C 38.7°F3.7°C 53% 18.0 mph WSW29.0 kmh WSW 20.0 mph32.2 kmh 29.19 in988.5 mb 0.00 in0.0 mm 0.00 in0.0 mm 0.00 in0.0 mm
04:55 AM 55.3°F12.9°C 38.4°F3.6°C 53% 5.0 mph S8.0 kmh S 18.0 mph29.0 kmh 29.19 in988.5 mb 0.00 in0.0 mm 0.00 in0.0 mm 0.00 in0.0 mm
05:00 AM 54.9°F12.7°C 39.0°F3.9°C 55% 9.0 mph SSW14.5 kmh SSW 19.0 mph30.6 kmh 29.19 in988.5 mb 0.00 in0.0 mm 0.00 in0.0 mm 0.00 in0.0 mm
05:05 AM 54.8°F12.7°C 38.9°F3.8°C 55% 19.0 mph S30.6 kmh S 19.0 mph30.6 kmh 29.19 in988.5 mb 0.00 in0.0 mm 0.00 in0.0 mm 0.00 in0.0 mm
05:10 AM 54.8°F12.7°C 39.4°F4.1°C 56% 10.0 mph S16.1 kmh S 21.0 mph33.8 kmh 29.20 in988.8 mb 0.00 in0.0 mm 0.00 in0.0 mm 0.00 in0.0 mm
05:15 AM 54.8°F12.7°C 39.4°F4.1°C 56% 7.0 mph S11.3 kmh S 19.0 mph30.6 kmh 29.21 in989.2 mb 0.00 in0.0 mm 0.00 in0.0 mm 0.00 in0.0 mm
05:20 AM 54.7°F12.6°C 39.3°F4.1°C 56% 9.0 mph S14.5 kmh S 18.0 mph29.0 kmh 29.21 in989.2 mb 0.00 in0.0 mm 0.00 in0.0 mm 0.00 in0.0 mm
05:25 AM 54.8°F12.7°C 39.4°F4.1°C 56% 11.0 mph SSE17.7 kmh SSE 20.0 mph32.2 kmh 29.20 in988.8 mb 0.00 in0.0 mm 0.00 in0.0 mm 0.00 in0.0 mm
05:30 AM 54.6°F12.6°C 39.2°F4.0°C 56% 14.0 mph SE22.5 kmh SE 17.0 mph27.4 kmh 29.19 in988.5 mb 0.00 in0.0 mm 0.00 in0.0 mm 0.00 in0.0 mm
05:35 AM 54.4°F12.4°C 39.0°F3.9°C 56% 10.0 mph SSE16.1 kmh SSE 21.0 mph33.8 kmh 29.20 in988.8 mb 0.00 in0.0 mm 0.00 in0.0 mm 0.00 in0.0 mm
05:40 AM 54.4°F12.4°C 39.0°F3.9°C 56% 5.0 mph SE8.0 kmh SE 14.0 mph22.5 kmh 29.20 in988.8 mb 0.00 in0.0 mm 0.00 in0.0 mm 0.00 in0.0 mm
05:45 AM 54.2°F12.3°C 39.3°F4.1°C 57% 5.0 mph SE8.0 kmh SE 11.0 mph17.7 kmh 29.20 in988.8 mb 0.00 in0.0 mm 0.00 in0.0 mm 0.00 in0.0 mm
05:50 AM 53.9°F12.2°C 39.4°F4.1°C 58% Calm Calm 10.0 mph16.1 kmh 29.20 in988.8 mb 0.00 in0.0 mm 0.00 in0.0 mm 0.00 in0.0 mm
05:55 AM 53.8°F12.1°C 39.3°F4.1°C 58% 2.0 mph SE3.2 kmh SE 12.0 mph19.3 kmh 29.20 in988.8 mb 0.00 in0.0 mm 0.00 in0.0 mm 0.00 in0.0 mm
06:00 AM 53.7°F12.1°C 39.2°F4.0°C 58% 5.0 mph ESE8.0 kmh ESE 7.0 mph11.3 kmh 29.20 in988.8 mb 0.00 in0.0 mm 0.00 in0.0 mm 0.00 in0.0 mm
06:05 AM 53.5°F11.9°C 39.5°F4.2°C 59% 2.0 mph ESE3.2 kmh ESE 11.0 mph17.7 kmh 29.20 in988.8 mb 0.00 in0.0 mm 0.00 in0.0 mm 0.00 in0.0 mm
06:10 AM 53.1°F11.7°C 39.1°F3.9°C 59% 11.0 mph SE17.7 kmh SE 12.0 mph19.3 kmh 29.20 in988.8 mb 0.00 in0.0 mm 0.00 in0.0 mm 0.00 in0.0 mm
06:15 AM 52.8°F11.6°C 39.3°F4.1°C 60% 2.0 mph ESE3.2 kmh ESE 13.0 mph20.9 kmh 29.20 in988.8 mb 0.00 in0.0 mm 0.00 in0.0 mm 0.00 in0.0 mm
06:20 AM 52.9°F11.6°C 39.3°F4.1°C 60% 5.0 mph SE8.0 kmh SE 13.0 mph20.9 kmh 29.20 in988.8 mb 0.00 in0.0 mm 0.00 in0.0 mm 0.00 in0.0 mm
06:25 AM 52.8°F11.6°C 39.3°F4.1°C 60% 3.0 mph SE4.8 kmh SE 14.0 mph22.5 kmh 29.20 in988.8 mb 0.00 in0.0 mm 0.00 in0.0 mm 0.00 in0.0 mm
06:30 AM 52.6°F11.4°C 39.1°F3.9°C 60% 9.0 mph SE14.5 kmh SE 12.0 mph19.3 kmh 29.20 in988.8 mb 0.00 in0.0 mm 0.00 in0.0 mm 0.00 in0.0 mm
06:35 AM 52.6°F11.4°C 39.5°F4.2°C 61% 5.0 mph ESE8.0 kmh ESE 12.0 mph19.3 kmh 29.20 in988.8 mb 0.00 in0.0 mm 0.00 in0.0 mm 0.00 in0.0 mm
06:40 AM 52.5°F11.4°C 39.0°F3.9°C 60% 6.0 mph SE9.7 kmh SE 11.0 mph17.7 kmh 29.20 in988.8 mb 0.00 in0.0 mm 0.00 in0.0 mm 0.00 in0.0 mm
06:45 AM 52.6°F11.4°C 39.5°F4.2°C 61% 5.0 mph E8.0 kmh E 14.0 mph22.5 kmh 29.20 in988.8 mb 0.00 in0.0 mm 0.00 in0.0 mm 0.00 in0.0 mm
06:50 AM 52.7°F11.5°C 39.2°F4.0°C 60% 6.0 mph S9.7 kmh S 13.0 mph20.9 kmh 29.20 in988.8 mb 0.00 in0.0 mm 0.00 in0.0 mm 0.00 in0.0 mm
06:55 AM 52.8°F11.6°C 39.7°F4.3°C 61% 9.0 mph SE14.5 kmh SE 13.0 mph20.9 kmh 29.21 in989.2 mb 0.00 in0.0 mm 0.00 in0.0 mm 0.00 in0.0 mm
07:00 AM 52.6°F11.4°C 39.5°F4.2°C 61% 4.0 mph SE6.4 kmh SE 12.0 mph19.3 kmh 29.21 in989.2 mb 0.00 in0.0 mm 0.00 in0.0 mm 0.00 in0.0 mm
07:05 AM 52.4°F11.3°C 39.3°F4.1°C 61% 9.0 mph SE14.5 kmh SE 14.0 mph22.5 kmh 29.21 in989.2 mb 0.00 in0.0 mm 0.00 in0.0 mm 0.00 in0.0 mm
07:10 AM 52.5°F11.4°C 39.4°F4.1°C 61% 5.0 mph SSE8.0 kmh SSE 13.0 mph20.9 kmh 29.21 in989.2 mb 0.00 in0.0 mm 0.00 in0.0 mm 0.00 in0.0 mm
07:15 AM 52.5°F11.4°C 39.4°F4.1°C 61% 6.0 mph SSE9.7 kmh SSE 16.0 mph25.7 kmh 29.21 in989.2 mb 0.00 in0.0 mm 0.00 in0.0 mm 0.00 in0.0 mm
07:20 AM 52.5°F11.4°C 39.4°F4.1°C 61% 2.0 mph SE3.2 kmh SE 12.0 mph19.3 kmh 29.21 in989.2 mb 0.00 in0.0 mm 0.00 in0.0 mm 0.00 in0.0 mm
07:25 AM 52.5°F11.4°C 39.4°F4.1°C 61% 11.0 mph ESE17.7 kmh ESE 13.0 mph20.9 kmh 29.22 in989.5 mb 0.00 in0.0 mm 0.00 in0.0 mm 0.00 in0.0 mm
07:30 AM 52.7°F11.5°C 39.6°F4.2°C 61% 5.0 mph E8.0 kmh E 14.0 mph22.5 kmh 29.22 in989.5 mb 0.00 in0.0 mm 0.00 in0.0 mm 0.00 in0.0 mm
07:35 AM 52.9°F11.6°C 39.8°F4.3°C 61% 5.0 mph E8.0 kmh E 14.0 mph22.5 kmh 29.22 in989.5 mb 0.00 in0.0 mm 0.00 in0.0 mm 0.00 in0.0 mm
07:40 AM 53.1°F11.7°C 39.5°F4.2°C 60% 6.0 mph SE9.7 kmh SE 15.0 mph24.1 kmh 29.22 in989.5 mb 0.00 in0.0 mm 0.00 in0.0 mm 0.00 in0.0 mm
07:45 AM 53.3°F11.8°C 39.7°F4.3°C 60% 5.0 mph SE8.0 kmh SE 16.0 mph25.7 kmh 29.23 in989.8 mb 0.00 in0.0 mm 0.00 in0.0 mm 0.00 in0.0 mm
07:50 AM 53.7°F12.1°C 40.1°F4.5°C 60% 6.0 mph SE9.7 kmh SE 15.0 mph24.1 kmh 29.23 in989.8 mb 0.00 in0.0 mm 0.00 in0.0 mm 0.00 in0.0 mm
07:55 AM 54.0°F12.2°C 39.9°F4.4°C 59% 8.0 mph SE12.9 kmh SE 21.0 mph33.8 kmh 29.24 in990.2 mb 0.00 in0.0 mm 0.00 in0.0 mm 0.00 in0.0 mm
08:00 AM 54.4°F12.4°C 39.9°F4.4°C 58% 3.0 mph SE4.8 kmh SE 13.0 mph20.9 kmh 29.24 in990.2 mb 0.00 in0.0 mm 0.00 in0.0 mm 0.00 in0.0 mm
08:05 AM 54.6°F12.6°C 40.5°F4.7°C 59% 8.0 mph E12.9 kmh E 12.0 mph19.3 kmh 29.25 in990.5 mb 0.00 in0.0 mm 0.00 in0.0 mm 0.00 in0.0 mm
08:10 AM 54.8°F12.7°C 40.7°F4.8°C 59% 7.0 mph SE11.3 kmh SE 13.0 mph20.9 kmh 29.25 in990.5 mb 0.00 in0.0 mm 0.00 in0.0 mm 0.00 in0.0 mm
08:15 AM 55.1°F12.8°C 41.0°F5.0°C 59% 6.0 mph SSE9.7 kmh SSE 11.0 mph17.7 kmh 29.25 in990.5 mb 0.00 in0.0 mm 0.00 in0.0 mm 0.00 in0.0 mm
08:20 AM 55.5°F13.1°C 40.9°F4.9°C 58% 7.0 mph SE11.3 kmh SE 14.0 mph22.5 kmh 29.25 in990.5 mb 0.00 in0.0 mm 0.00 in0.0 mm 0.00 in0.0 mm
08:25 AM 55.8°F13.2°C 40.7°F4.8°C 57% 6.0 mph SE9.7 kmh SE 13.0 mph20.9 kmh 29.26 in990.9 mb 0.00 in0.0 mm 0.00 in0.0 mm 0.00 in0.0 mm
08:30 AM 56.2°F13.4°C 40.7°F4.8°C 56% 4.0 mph SW6.4 kmh SW 15.0 mph24.1 kmh 29.27 in991.2 mb 0.00 in0.0 mm 0.00 in0.0 mm 0.00 in0.0 mm
08:35 AM 56.4°F13.6°C 42.2°F5.7°C 59% 6.0 mph WSW9.7 kmh WSW 12.0 mph19.3 kmh 29.28 in991.5 mb 0.00 in0.0 mm 0.00 in0.0 mm 0.00 in0.0 mm
08:40 AM 55.8°F13.2°C 41.2°F5.1°C 58% 18.0 mph SW29.0 kmh SW 23.0 mph37.0 kmh 29.29 in991.9 mb 0.00 in0.0 mm 0.00 in0.0 mm 0.00 in0.0 mm
08:45 AM 54.4°F12.4°C 42.0°F5.6°C 63% 17.0 mph WSW27.4 kmh WSW 24.0 mph38.6 kmh 29.30 in992.2 mb 0.00 in0.0 mm 0.00 in0.0 mm 0.00 in0.0 mm
08:50 AM 51.9°F11.1°C 42.0°F5.6°C 69% 11.0 mph WNW17.7 kmh WNW 22.0 mph35.4 kmh 29.32 in992.9 mb 0.00 in0.0 mm 0.00 in0.0 mm 0.00 in0.0 mm
08:55 AM 51.0°F10.6°C 42.2°F5.7°C 72% 15.0 mph W24.1 kmh W 18.0 mph29.0 kmh 29.32 in992.9 mb 0.00 in0.0 mm 0.00 in0.0 mm 0.00 in0.0 mm
09:00 AM 50.6°F10.3°C 42.2°F5.7°C 73% 12.0 mph WNW19.3 kmh WNW 17.0 mph27.4 kmh 29.33 in993.2 mb 0.00 in0.0 mm 0.00 in0.0 mm 0.00 in0.0 mm
09:05 AM 50.1°F10.1°C 42.1°F5.6°C 74% 11.0 mph SW17.7 kmh SW 22.0 mph35.4 kmh 29.33 in993.2 mb 0.00 in0.0 mm 0.00 in0.0 mm 0.00 in0.0 mm
09:10 AM 49.6°F9.8°C 42.3°F5.7°C 76% 11.0 mph W17.7 kmh W 18.0 mph29.0 kmh 29.34 in993.6 mb 0.00 in0.0 mm 0.00 in0.0 mm 0.00 in0.0 mm
09:15 AM 49.3°F9.6°C 42.3°F5.7°C 77% 14.0 mph WSW22.5 kmh WSW 23.0 mph37.0 kmh 29.34 in993.6 mb 0.00 in0.0 mm 0.00 in0.0 mm 0.00 in0.0 mm
09:20 AM 49.0°F9.4°C 41.7°F5.4°C 76% 13.0 mph WSW20.9 kmh WSW 23.0 mph37.0 kmh 29.34 in993.6 mb 0.00 in0.0 mm 0.00 in0.0 mm 0.00 in0.0 mm
09:25 AM 48.5°F9.2°C 40.9°F4.9°C 75% 16.0 mph WSW25.7 kmh WSW 28.0 mph45.1 kmh 29.35 in993.9 mb 0.00 in0.0 mm 0.00 in0.0 mm 0.00 in0.0 mm
09:30 AM 48.3°F9.1°C 40.0°F4.4°C 73% 15.0 mph W24.1 kmh W 29.0 mph46.7 kmh 29.36 in994.2 mb 0.00 in0.0 mm 0.00 in0.0 mm 0.00 in0.0 mm
09:35 AM 48.6°F9.2°C 39.9°F4.4°C 72% 15.0 mph SW24.1 kmh SW 24.0 mph38.6 kmh 29.36 in994.2 mb 0.00 in0.0 mm 0.00 in0.0 mm 0.00 in0.0 mm
09:40 AM 48.8°F9.3°C 39.4°F4.1°C 70% 13.0 mph WSW20.9 kmh WSW 24.0 mph38.6 kmh 29.36 in994.2 mb 0.00 in0.0 mm 0.00 in0.0 mm 0.00 in0.0 mm
09:45 AM 49.0°F9.4°C 40.0°F4.4°C 71% 11.0 mph W17.7 kmh W 21.0 mph33.8 kmh 29.37 in994.6 mb 0.00 in0.0 mm 0.00 in0.0 mm 0.00 in0.0 mm
09:50 AM 49.4°F9.7°C 39.6°F4.2°C 69% 16.0 mph W25.7 kmh W 23.0 mph37.0 kmh 29.38 in994.9 mb 0.00 in0.0 mm 0.00 in0.0 mm 0.00 in0.0 mm
09:55 AM 49.3°F9.6°C 39.1°F3.9°C 68% 14.0 mph WSW22.5 kmh WSW 21.0 mph33.8 kmh 29.38 in994.9 mb 0.00 in0.0 mm 0.00 in0.0 mm 0.00 in0.0 mm
10:00 AM 48.6°F9.2°C 38.5°F3.6°C 68% 12.0 mph W19.3 kmh W 23.0 mph37.0 kmh 29.38 in994.9 mb 0.00 in0.0 mm 0.00 in0.0 mm 0.00 in0.0 mm
10:05 AM 48.1°F8.9°C 38.4°F3.6°C 69% 12.0 mph W19.3 kmh W 21.0 mph33.8 kmh 29.39 in995.3 mb 0.00 in0.0 mm 0.00 in0.0 mm 0.00 in0.0 mm
10:10 AM 47.9°F8.8°C 38.2°F3.4°C 69% 4.0 mph WSW6.4 kmh WSW 19.0 mph30.6 kmh 29.40 in995.6 mb 0.00 in0.0 mm 0.00 in0.0 mm 0.00 in0.0 mm
10:15 AM 47.7°F8.7°C 38.4°F3.6°C 70% 9.0 mph WSW14.5 kmh WSW 15.0 mph24.1 kmh 29.40 in995.6 mb 0.00 in0.0 mm 0.00 in0.0 mm 0.00 in0.0 mm
10:20 AM 47.5°F8.6°C 37.4°F3.0°C 68% 13.0 mph SW20.9 kmh SW 24.0 mph38.6 kmh 29.41 in995.9 mb 0.00 in0.0 mm 0.00 in0.0 mm 0.00 in0.0 mm
10:25 AM 47.2°F8.4°C 37.9°F3.3°C 70% 12.0 mph NW19.3 kmh NW 20.0 mph32.2 kmh 29.43 in996.6 mb 0.00 in0.0 mm 0.00 in0.0 mm 0.00 in0.0 mm
10:30 AM 47.3°F8.5°C 38.3°F3.5°C 71% 17.0 mph WSW27.4 kmh WSW 18.0 mph29.0 kmh 29.42 in996.3 mb 0.00 in0.0 mm 0.00 in0.0 mm 0.00 in0.0 mm
10:35 AM 47.2°F8.4°C 37.9°F3.3°C 70% 13.0 mph WSW20.9 kmh WSW 19.0 mph30.6 kmh 29.43 in996.6 mb 0.00 in0.0 mm 0.00 in0.0 mm 0.00 in0.0 mm
10:40 AM 47.2°F8.4°C 37.9°F3.3°C 70% 16.0 mph SW25.7 kmh SW 19.0 mph30.6 kmh 29.43 in996.6 mb 0.00 in0.0 mm 0.00 in0.0 mm 0.00 in0.0 mm
10:45 AM 47.3°F8.5°C 38.3°F3.5°C 71% 11.0 mph WSW17.7 kmh WSW 20.0 mph32.2 kmh 29.44 in997.0 mb 0.00 in0.0 mm 0.00 in0.0 mm 0.00 in0.0 mm
10:50 AM 47.5°F8.6°C 38.2°F3.4°C 70% 10.0 mph WSW16.1 kmh WSW 17.0 mph27.4 kmh 29.44 in997.0 mb 0.00 in0.0 mm 0.00 in0.0 mm 0.00 in0.0 mm
10:55 AM 47.8°F8.8°C 38.4°F3.6°C 70% 11.0 mph WNW17.7 kmh WNW 16.0 mph25.7 kmh 29.45 in997.3 mb 0.00 in0.0 mm 0.00 in0.0 mm 0.00 in0.0 mm
11:00 AM 48.0°F8.9°C 37.9°F3.3°C 68% 14.0 mph W22.5 kmh W 20.0 mph32.2 kmh 29.45 in997.3 mb 0.00 in0.0 mm 0.00 in0.0 mm 0.00 in0.0 mm
11:05 AM 48.3°F9.1°C 38.2°F3.4°C 68% 15.0 mph W24.1 kmh W 18.0 mph29.0 kmh 29.45 in997.3 mb 0.00 in0.0 mm 0.00 in0.0 mm 0.00 in0.0 mm
11:10 AM 48.6°F9.2°C 37.7°F3.2°C 66% 14.0 mph WSW22.5 kmh WSW 17.0 mph27.4 kmh 29.45 in997.3 mb 0.00 in0.0 mm 0.00 in0.0 mm 0.00 in0.0 mm
11:15 AM 48.3°F9.1°C 37.4°F3.0°C 66% 14.0 mph WSW22.5 kmh WSW 21.0 mph33.8 kmh 29.45 in997.3 mb 0.00 in0.0 mm 0.00 in0.0 mm 0.00 in0.0 mm
11:20 AM 48.0°F8.9°C 37.1°F2.8°C 66% 21.0 mph W33.8 kmh W 21.0 mph33.8 kmh 29.45 in997.3 mb 0.00 in0.0 mm 0.00 in0.0 mm 0.00 in0.0 mm
11:25 AM 47.9°F8.8°C 37.4°F3.0°C 67% 7.0 mph WSW11.3 kmh WSW 20.0 mph32.2 kmh 29.46 in997.6 mb 0.00 in0.0 mm 0.00 in0.0 mm 0.00 in0.0 mm
11:30 AM 47.8°F8.8°C 37.7°F3.2°C 68% 11.0 mph W17.7 kmh W 18.0 mph29.0 kmh 29.46 in997.6 mb 0.00 in0.0 mm 0.00 in0.0 mm 0.00 in0.0 mm
11:35 AM 47.8°F8.8°C 37.3°F2.9°C 67% 9.0 mph WSW14.5 kmh WSW 14.0 mph22.5 kmh 29.47 in998.0 mb 0.00 in0.0 mm 0.00 in0.0 mm 0.00 in0.0 mm
11:40 AM 47.8°F8.8°C 37.7°F3.2°C 68% 9.0 mph WSW14.5 kmh WSW 14.0 mph22.5 kmh 29.47 in998.0 mb 0.00 in0.0 mm 0.00 in0.0 mm 0.00 in0.0 mm
11:45 AM 47.6°F8.7°C 37.5°F3.1°C 68% 10.0 mph NW16.1 kmh NW 17.0 mph27.4 kmh 29.47 in998.0 mb 0.00 in0.0 mm 0.00 in0.0 mm 0.00 in0.0 mm
11:50 AM 47.6°F8.7°C 37.5°F3.1°C 68% 9.0 mph W14.5 kmh W 17.0 mph27.4 kmh 29.47 in998.0 mb 0.00 in0.0 mm 0.00 in0.0 mm 0.00 in0.0 mm
11:55 AM 47.5°F8.6°C 37.4°F3.0°C 68% 5.0 mph WNW8.0 kmh WNW 17.0 mph27.4 kmh 29.48 in998.3 mb 0.00 in0.0 mm 0.00 in0.0 mm 0.00 in0.0 mm
12:00 PM 47.5°F8.6°C 37.4°F3.0°C 68% 9.0 mph WSW14.5 kmh WSW 18.0 mph29.0 kmh 29.48 in998.3 mb 0.00 in0.0 mm 0.00 in0.0 mm 0.00 in0.0 mm
12:05 PM 47.4°F8.6°C 37.3°F2.9°C 68% 12.0 mph SW19.3 kmh SW 17.0 mph27.4 kmh 29.48 in998.3 mb 0.00 in0.0 mm 0.00 in0.0 mm 0.00 in0.0 mm
12:10 PM 47.4°F8.6°C 37.3°F2.9°C 68% 8.0 mph W12.9 kmh W 15.0 mph24.1 kmh 29.49 in998.6 mb 0.00 in0.0 mm 0.00 in0.0 mm 0.00 in0.0 mm
12:15 PM 47.4°F8.6°C 37.3°F2.9°C 68% 10.0 mph WSW16.1 kmh WSW 17.0 mph27.4 kmh 29.49 in998.6 mb 0.00 in0.0 mm 0.00 in0.0 mm 0.00 in0.0 mm
12:20 PM 47.4°F8.6°C 37.7°F3.2°C 69% 9.0 mph NW14.5 kmh NW 14.0 mph22.5 kmh 29.50 in999.0 mb 0.00 in0.0 mm 0.00 in0.0 mm 0.00 in0.0 mm
12:25 PM 47.1°F8.4°C 36.7°F2.6°C 67% 9.0 mph W14.5 kmh W 17.0 mph27.4 kmh 29.50 in999.0 mb 0.00 in0.0 mm 0.00 in0.0 mm 0.00 in0.0 mm
12:30 PM 46.9°F8.3°C 36.5°F2.5°C 67% 9.0 mph W14.5 kmh W 17.0 mph27.4 kmh 29.50 in999.0 mb 0.00 in0.0 mm 0.00 in0.0 mm 0.00 in0.0 mm
12:35 PM 46.7°F8.2°C 36.7°F2.6°C 68% 12.0 mph W19.3 kmh W 14.0 mph22.5 kmh 29.51 in999.3 mb 0.00 in0.0 mm 0.00 in0.0 mm 0.00 in0.0 mm
12:40 PM 46.5°F8.1°C 36.8°F2.7°C 69% 10.0 mph W16.1 kmh W 14.0 mph22.5 kmh 29.51 in999.3 mb 0.00 in0.0 mm 0.00 in0.0 mm 0.00 in0.0 mm
12:45 PM 46.5°F8.1°C 36.8°F2.7°C 69% 9.0 mph NW14.5 kmh NW 12.0 mph19.3 kmh 29.51 in999.3 mb 0.00 in0.0 mm 0.00 in0.0 mm 0.00 in0.0 mm
12:50 PM 46.5°F8.1°C 36.5°F2.5°C 68% 11.0 mph W17.7 kmh W 16.0 mph25.7 kmh 29.52 in999.7 mb 0.00 in0.0 mm 0.00 in0.0 mm 0.00 in0.0 mm
12:55 PM 46.6°F8.1°C 36.2°F2.3°C 67% 10.0 mph WNW16.1 kmh WNW 17.0 mph27.4 kmh 29.52 in999.7 mb 0.00 in0.0 mm 0.00 in0.0 mm 0.00 in0.0 mm
01:00 PM 46.7°F8.2°C 36.3°F2.4°C 67% 11.0 mph W17.7 kmh W 16.0 mph25.7 kmh 29.53 in1000.0 mb 0.00 in0.0 mm 0.00 in0.0 mm 0.00 in0.0 mm
01:05 PM 46.8°F8.2°C 36.8°F2.7°C 68% 5.0 mph W8.0 kmh W 17.0 mph27.4 kmh 29.53 in1000.0 mb 0.00 in0.0 mm 0.00 in0.0 mm 0.00 in0.0 mm
01:10 PM 46.9°F8.3°C 36.8°F2.7°C 68% 6.0 mph WSW9.7 kmh WSW 16.0 mph25.7 kmh 29.53 in1000.0 mb 0.00 in0.0 mm 0.00 in0.0 mm 0.00 in0.0 mm
01:15 PM 46.6°F8.1°C 36.6°F2.6°C 68% 13.0 mph W20.9 kmh W 16.0 mph25.7 kmh 29.53 in1000.0 mb 0.00 in0.0 mm 0.00 in0.0 mm 0.00 in0.0 mm
01:20 PM 46.4°F8.0°C 36.7°F2.6°C 69% 10.0 mph WNW16.1 kmh WNW 16.0 mph25.7 kmh 29.54 in1000.3 mb 0.00 in0.0 mm 0.00 in0.0 mm 0.00 in0.0 mm
01:25 PM 46.3°F7.9°C 36.6°F2.6°C 69% 11.0 mph W17.7 kmh W 17.0 mph27.4 kmh 29.54 in1000.3 mb 0.00 in0.0 mm 0.00 in0.0 mm 0.00 in0.0 mm
01:30 PM 46.3°F7.9°C 37.4°F3.0°C 71% 5.0 mph W8.0 kmh W 13.0 mph20.9 kmh 29.54 in1000.3 mb 0.00 in0.0 mm 0.00 in0.0 mm 0.00 in0.0 mm
01:35 PM 46.3°F7.9°C 37.0°F2.8°C 70% 7.0 mph WNW11.3 kmh WNW 15.0 mph24.1 kmh 29.55 in1000.7 mb 0.00 in0.0 mm 0.00 in0.0 mm 0.00 in0.0 mm
01:40 PM 46.3°F7.9°C 37.4°F3.0°C 71% 8.0 mph WSW12.9 kmh WSW 15.0 mph24.1 kmh 29.55 in1000.7 mb 0.00 in0.0 mm 0.00 in0.0 mm 0.00 in0.0 mm
01:45 PM 46.3°F7.9°C 37.0°F2.8°C 70% 9.0 mph SW14.5 kmh SW 14.0 mph22.5 kmh 29.55 in1000.7 mb 0.00 in0.0 mm 0.00 in0.0 mm 0.00 in0.0 mm
01:50 PM 46.3°F7.9°C 37.0°F2.8°C 70% 5.0 mph WNW8.0 kmh WNW 14.0 mph22.5 kmh 29.56 in1001.0 mb 0.00 in0.0 mm 0.00 in0.0 mm 0.00 in0.0 mm
01:55 PM 46.5°F8.1°C 37.6°F3.1°C 71% 4.0 mph WNW6.4 kmh WNW 11.0 mph17.7 kmh 29.56 in1001.0 mb 0.00 in0.0 mm 0.00 in0.0 mm 0.00 in0.0 mm
02:00 PM 46.6°F8.1°C 37.7°F3.2°C 71% 8.0 mph W12.9 kmh W 12.0 mph19.3 kmh 29.56 in1001.0 mb 0.00 in0.0 mm 0.00 in0.0 mm 0.00 in0.0 mm
02:05 PM 46.6°F8.1°C 37.3°F2.9°C 70% 9.0 mph W14.5 kmh W 13.0 mph20.9 kmh 29.56 in1001.0 mb 0.00 in0.0 mm 0.00 in0.0 mm 0.00 in0.0 mm
02:10 PM 46.5°F8.1°C 37.2°F2.9°C 70% 6.0 mph SW9.7 kmh SW 12.0 mph19.3 kmh 29.56 in1001.0 mb 0.00 in0.0 mm 0.00 in0.0 mm 0.00 in0.0 mm
02:15 PM 46.4°F8.0°C 37.5°F3.1°C 71% 12.0 mph W19.3 kmh W 14.0 mph22.5 kmh 29.57 in1001.4 mb 0.00 in0.0 mm 0.00 in0.0 mm 0.00 in0.0 mm
02:20 PM 46.4°F8.0°C 37.5°F3.1°C 71% 6.0 mph WSW9.7 kmh WSW 13.0 mph20.9 kmh 29.57 in1001.4 mb 0.00 in0.0 mm 0.00 in0.0 mm 0.00 in0.0 mm
02:25 PM 46.5°F8.1°C 37.2°F2.9°C 70% 11.0 mph SW17.7 kmh SW 14.0 mph22.5 kmh 29.58 in1001.7 mb 0.00 in0.0 mm 0.00 in0.0 mm 0.00 in0.0 mm
02:30 PM 46.5°F8.1°C 36.8°F2.7°C 69% 5.0 mph WSW8.0 kmh WSW 16.0 mph25.7 kmh 29.59 in1002.0 mb 0.00 in0.0 mm 0.00 in0.0 mm 0.00 in0.0 mm
02:35 PM 46.8°F8.2°C 37.1°F2.8°C 69% 13.0 mph W20.9 kmh W 18.0 mph29.0 kmh 29.59 in1002.0 mb 0.00 in0.0 mm 0.00 in0.0 mm 0.00 in0.0 mm
02:40 PM 46.9°F8.3°C 36.8°F2.7°C 68% 14.0 mph WSW22.5 kmh WSW 16.0 mph25.7 kmh 29.60 in1002.4 mb 0.00 in0.0 mm 0.00 in0.0 mm 0.00 in0.0 mm
02:45 PM 46.8°F8.2°C 36.8°F2.7°C 68% 11.0 mph WSW17.7 kmh WSW 17.0 mph27.4 kmh 29.60 in1002.4 mb 0.00 in0.0 mm 0.00 in0.0 mm 0.00 in0.0 mm
02:50 PM 46.6°F8.1°C 36.6°F2.6°C 68% 13.0 mph WSW20.9 kmh WSW 19.0 mph30.6 kmh 29.60 in1002.4 mb 0.00 in0.0 mm 0.00 in0.0 mm 0.00 in0.0 mm
02:55 PM 46.2°F7.9°C 36.5°F2.5°C 69% 13.0 mph WSW20.9 kmh WSW 18.0 mph29.0 kmh 29.61 in1002.7 mb 0.00 in0.0 mm 0.00 in0.0 mm 0.00 in0.0 mm
03:00 PM 46.0°F7.8°C 36.7°F2.6°C 70% 9.0 mph SW14.5 kmh SW 14.0 mph22.5 kmh 29.62 in1003.0 mb 0.00 in0.0 mm 0.00 in0.0 mm 0.00 in0.0 mm
03:05 PM 45.8°F7.7°C 36.9°F2.7°C 71% 7.0 mph W11.3 kmh W 14.0 mph22.5 kmh 29.62 in1003.0 mb 0.00 in0.0 mm 0.00 in0.0 mm 0.00 in0.0 mm
03:10 PM 45.8°F7.7°C 36.9°F2.7°C 71% 6.0 mph WNW9.7 kmh WNW 15.0 mph24.1 kmh 29.63 in1003.4 mb 0.00 in0.0 mm 0.00 in0.0 mm 0.00 in0.0 mm
03:15 PM 45.8°F7.7°C 36.5°F2.5°C 70% 10.0 mph WSW16.1 kmh WSW 16.0 mph25.7 kmh 29.63 in1003.4 mb 0.00 in0.0 mm 0.00 in0.0 mm 0.00 in0.0 mm
03:20 PM 45.8°F7.7°C 36.9°F2.7°C 71% 8.0 mph W12.9 kmh W 15.0 mph24.1 kmh 29.64 in1003.7 mb 0.00 in0.0 mm 0.00 in0.0 mm 0.00 in0.0 mm
03:25 PM 45.9°F7.7°C 37.0°F2.8°C 71% 11.0 mph W17.7 kmh W 14.0 mph22.5 kmh 29.64 in1003.7 mb 0.00 in0.0 mm 0.00 in0.0 mm 0.00 in0.0 mm
03:30 PM 45.9°F7.7°C 37.0°F2.8°C 71% 7.0 mph W11.3 kmh W 15.0 mph24.1 kmh 29.64 in1003.7 mb 0.00 in0.0 mm 0.00 in0.0 mm 0.00 in0.0 mm
03:35 PM 45.8°F7.7°C 37.2°F2.9°C 72% 14.0 mph W22.5 kmh W 19.0 mph30.6 kmh 29.65 in1004.1 mb 0.00 in0.0 mm 0.00 in0.0 mm 0.00 in0.0 mm
03:40 PM 45.6°F7.6°C 36.3°F2.4°C 70% 13.0 mph WSW20.9 kmh WSW 20.0 mph32.2 kmh 29.65 in1004.1 mb 0.00 in0.0 mm 0.00 in0.0 mm 0.00 in0.0 mm
03:45 PM 45.5°F7.5°C 36.6°F2.6°C 71% 4.0 mph WSW6.4 kmh WSW 16.0 mph25.7 kmh 29.66 in1004.4 mb 0.00 in0.0 mm 0.00 in0.0 mm 0.00 in0.0 mm
03:50 PM 45.4°F7.4°C 36.9°F2.7°C 72% 10.0 mph W16.1 kmh W 17.0 mph27.4 kmh 29.67 in1004.7 mb 0.00 in0.0 mm 0.00 in0.0 mm 0.00 in0.0 mm
03:55 PM 45.4°F7.4°C 36.9°F2.7°C 72% 5.0 mph SW8.0 kmh SW 14.0 mph22.5 kmh 29.67 in1004.7 mb 0.00 in0.0 mm 0.00 in0.0 mm 0.00 in0.0 mm
04:00 PM 45.4°F7.4°C 36.5°F2.5°C 71% 7.0 mph W11.3 kmh W 16.0 mph25.7 kmh 29.68 in1005.1 mb 0.00 in0.0 mm 0.00 in0.0 mm 0.00 in0.0 mm
04:05 PM 45.5°F7.5°C 36.6°F2.6°C 71% 6.0 mph WSW9.7 kmh WSW 15.0 mph24.1 kmh 29.68 in1005.1 mb 0.00 in0.0 mm 0.00 in0.0 mm 0.00 in0.0 mm
04:10 PM 45.5°F7.5°C 36.6°F2.6°C 71% 9.0 mph WSW14.5 kmh WSW 13.0 mph20.9 kmh 29.68 in1005.1 mb 0.00 in0.0 mm 0.00 in0.0 mm 0.00 in0.0 mm
04:15 PM 45.4°F7.4°C 37.2°F2.9°C 73% 6.0 mph WSW9.7 kmh WSW 13.0 mph20.9 kmh 29.69 in1005.4 mb 0.00 in0.0 mm 0.00 in0.0 mm 0.00 in0.0 mm
04:20 PM 45.4°F7.4°C 37.6°F3.1°C 74% 5.0 mph SW8.0 kmh SW 11.0 mph17.7 kmh 29.69 in1005.4 mb 0.00 in0.0 mm 0.00 in0.0 mm 0.00 in0.0 mm
04:25 PM 45.2°F7.3°C 36.7°F2.6°C 72% 2.0 mph WSW3.2 kmh WSW 11.0 mph17.7 kmh 29.69 in1005.4 mb 0.00 in0.0 mm 0.00 in0.0 mm 0.00 in0.0 mm
04:30 PM 45.0°F7.2°C 36.8°F2.7°C 73% 2.0 mph SW3.2 kmh SW 9.0 mph14.5 kmh 29.69 in1005.4 mb 0.00 in0.0 mm 0.00 in0.0 mm 0.00 in0.0 mm
04:35 PM 44.8°F7.1°C 36.6°F2.6°C 73% 3.0 mph SW4.8 kmh SW 4.0 mph6.4 kmh 29.70 in1005.8 mb 0.00 in0.0 mm 0.00 in0.0 mm 0.00 in0.0 mm
04:40 PM 44.6°F7.0°C 36.8°F2.7°C 74% Calm Calm 4.0 mph6.4 kmh 29.70 in1005.8 mb 0.00 in0.0 mm 0.00 in0.0 mm 0.00 in0.0 mm
04:45 PM 44.5°F6.9°C 36.7°F2.6°C 74% 3.0 mph SW4.8 kmh SW 4.0 mph6.4 kmh 29.70 in1005.8 mb 0.00 in0.0 mm 0.00 in0.0 mm 0.00 in0.0 mm
04:50 PM 44.5°F6.9°C 36.7°F2.6°C 74% 3.0 mph SW4.8 kmh SW 4.0 mph6.4 kmh 29.70 in1005.8 mb 0.00 in0.0 mm 0.00 in0.0 mm 0.00 in0.0 mm
04:55 PM 44.5°F6.9°C 36.7°F2.6°C 74% 1.0 mph SSW1.6 kmh SSW 4.0 mph6.4 kmh 29.71 in1006.1 mb 0.00 in0.0 mm 0.00 in0.0 mm 0.00 in0.0 mm
05:00 PM 44.4°F6.9°C 36.6°F2.6°C 74% 1.0 mph SSW1.6 kmh SSW 3.0 mph4.8 kmh 29.71 in1006.1 mb 0.00 in0.0 mm 0.00 in0.0 mm 0.00 in0.0 mm
05:05 PM 44.2°F6.8°C 36.7°F2.6°C 75% 1.0 mph SSW1.6 kmh SSW 2.0 mph3.2 kmh 29.72 in1006.4 mb 0.00 in0.0 mm 0.00 in0.0 mm 0.00 in0.0 mm
05:10 PM 44.1°F6.7°C 36.6°F2.6°C 75% Calm Calm 4.0 mph6.4 kmh 29.72 in1006.4 mb 0.00 in0.0 mm 0.00 in0.0 mm 0.00 in0.0 mm
05:15 PM 43.9°F6.6°C 36.8°F2.7°C 76% 1.0 mph SSW1.6 kmh SSW 2.0 mph3.2 kmh 29.72 in1006.4 mb 0.00 in0.0 mm 0.00 in0.0 mm 0.00 in0.0 mm
05:20 PM 43.7°F6.5°C 36.6°F2.6°C 76% 1.0 mph SE1.6 kmh SE 3.0 mph4.8 kmh 29.72 in1006.4 mb 0.00 in0.0 mm 0.00 in0.0 mm 0.00 in0.0 mm
05:25 PM 43.6°F6.4°C 36.5°F2.5°C 76% Calm Calm 2.0 mph3.2 kmh 29.73 in1006.8 mb 0.00 in0.0 mm 0.00 in0.0 mm 0.00 in0.0 mm
05:30 PM 43.5°F6.4°C 36.4°F2.4°C 76% Calm Calm 4.0 mph6.4 kmh 29.73 in1006.8 mb 0.00 in0.0 mm 0.00 in0.0 mm 0.00 in0.0 mm
05:35 PM 43.4°F6.3°C 36.6°F2.6°C 77% Calm Calm 4.0 mph6.4 kmh 29.74 in1007.1 mb 0.00 in0.0 mm 0.00 in0.0 mm 0.00 in0.0 mm
05:40 PM 43.3°F6.3°C 36.5°F2.5°C 77% 1.0 mph SSE1.6 kmh SSE 3.0 mph4.8 kmh 29.74 in1007.1 mb 0.00 in0.0 mm 0.00 in0.0 mm 0.00 in0.0 mm
05:45 PM 43.3°F6.3°C 36.5°F2.5°C 77% Calm Calm 3.0 mph4.8 kmh 29.75 in1007.5 mb 0.00 in0.0 mm 0.00 in0.0 mm 0.00 in0.0 mm
05:50 PM 43.3°F6.3°C 36.5°F2.5°C 77% Calm Calm 1.0 mph1.6 kmh 29.75 in1007.5 mb 0.00 in0.0 mm 0.00 in0.0 mm 0.00 in0.0 mm
05:55 PM 43.1°F6.2°C 36.3°F2.4°C 77% 3.0 mph SE4.8 kmh SE 4.0 mph6.4 kmh 29.75 in1007.5 mb 0.00 in0.0 mm 0.00 in0.0 mm 0.00 in0.0 mm
06:00 PM 43.0°F6.1°C 36.2°F2.3°C 77% 1.0 mph SSE1.6 kmh SSE 3.0 mph4.8 kmh 29.75 in1007.5 mb 0.00 in0.0 mm 0.00 in0.0 mm 0.00 in0.0 mm
06:05 PM 42.8°F6.0°C 36.4°F2.4°C 78% 2.0 mph SE3.2 kmh SE 4.0 mph6.4 kmh 29.76 in1007.8 mb 0.00 in0.0 mm 0.00 in0.0 mm 0.00 in0.0 mm
06:10 PM 42.7°F5.9°C 36.3°F2.4°C 78% 2.0 mph SE3.2 kmh SE 4.0 mph6.4 kmh 29.76 in1007.8 mb 0.00 in0.0 mm 0.00 in0.0 mm 0.00 in0.0 mm
06:15 PM 42.7°F5.9°C 36.3°F2.4°C 78% 2.0 mph SSE3.2 kmh SSE 4.0 mph6.4 kmh 29.76 in1007.8 mb 0.00 in0.0 mm 0.00 in0.0 mm 0.00 in0.0 mm
06:20 PM 42.6°F5.9°C 36.2°F2.3°C 78% 2.0 mph S3.2 kmh S 4.0 mph6.4 kmh 29.76 in1007.8 mb 0.00 in0.0 mm 0.00 in0.0 mm 0.00 in0.0 mm
06:25 PM 42.4°F5.8°C 36.0°F2.2°C 78% 4.0 mph SE6.4 kmh SE 4.0 mph6.4 kmh 29.77 in1008.1 mb 0.00 in0.0 mm 0.00 in0.0 mm 0.00 in0.0 mm
06:30 PM 42.3°F5.7°C 35.9°F2.2°C 78% Calm Calm 4.0 mph6.4 kmh 29.78 in1008.5 mb 0.00 in0.0 mm 0.00 in0.0 mm 0.00 in0.0 mm
06:35 PM 42.2°F5.7°C 36.1°F2.3°C 79% 1.0 mph SE1.6 kmh SE 4.0 mph6.4 kmh 29.77 in1008.1 mb 0.00 in0.0 mm 0.00 in0.0 mm 0.00 in0.0 mm
06:40 PM 42.1°F5.6°C 36.0°F2.2°C 79% 2.0 mph SE3.2 kmh SE 4.0 mph6.4 kmh 29.78 in1008.5 mb 0.00 in0.0 mm 0.00 in0.0 mm 0.00 in0.0 mm
06:45 PM 42.0°F5.6°C 35.9°F2.2°C 79% 1.0 mph ESE1.6 kmh ESE 4.0 mph6.4 kmh 29.78 in1008.5 mb 0.00 in0.0 mm 0.00 in0.0 mm 0.00 in0.0 mm
06:50 PM 41.9°F5.5°C 35.8°F2.1°C 79% 3.0 mph SE4.8 kmh SE 4.0 mph6.4 kmh 29.79 in1008.8 mb 0.00 in0.0 mm 0.00 in0.0 mm 0.00 in0.0 mm
06:55 PM 41.7°F5.4°C 35.9°F2.2°C 80% 3.0 mph SSE4.8 kmh SSE 4.0 mph6.4 kmh 29.79 in1008.8 mb 0.00 in0.0 mm 0.00 in0.0 mm 0.00 in0.0 mm
07:00 PM 41.6°F5.3°C 35.8°F2.1°C 80% 3.0 mph SSE4.8 kmh SSE 5.0 mph8.0 kmh 29.79 in1008.8 mb 0.00 in0.0 mm 0.00 in0.0 mm 0.00 in0.0 mm
07:05 PM 41.5°F5.3°C 35.7°F2.1°C 80% 2.0 mph SE3.2 kmh SE 7.0 mph11.3 kmh 29.79 in1008.8 mb 0.00 in0.0 mm 0.00 in0.0 mm 0.00 in0.0 mm
07:10 PM 41.5°F5.3°C 35.7°F2.1°C 80% 3.0 mph SSE4.8 kmh SSE 7.0 mph11.3 kmh 29.79 in1008.8 mb 0.00 in0.0 mm 0.00 in0.0 mm 0.00 in0.0 mm
07:15 PM 41.4°F5.2°C 35.7°F2.1°C 80% 3.0 mph SE4.8 kmh SE 7.0 mph11.3 kmh 29.80 in1009.1 mb 0.00 in0.0 mm 0.00 in0.0 mm 0.00 in0.0 mm
07:20 PM 41.4°F5.2°C 35.7°F2.1°C 80% 5.0 mph SE8.0 kmh SE 7.0 mph11.3 kmh 29.80 in1009.1 mb 0.00 in0.0 mm 0.00 in0.0 mm 0.00 in0.0 mm
07:25 PM 41.3°F5.2°C 35.6°F2.0°C 80% 5.0 mph SE8.0 kmh SE 6.0 mph9.7 kmh 29.80 in1009.1 mb 0.00 in0.0 mm 0.00 in0.0 mm 0.00 in0.0 mm
07:30 PM 41.3°F5.2°C 35.6°F2.0°C 80% 2.0 mph SSE3.2 kmh SSE 6.0 mph9.7 kmh 29.80 in1009.1 mb 0.00 in0.0 mm 0.00 in0.0 mm 0.00 in0.0 mm
07:35 PM 41.4°F5.2°C 35.7°F2.1°C 80% 1.0 mph SE1.6 kmh SE 5.0 mph8.0 kmh 29.80 in1009.1 mb 0.00 in0.0 mm 0.00 in0.0 mm 0.00 in0.0 mm
07:40 PM 41.3°F5.2°C 35.6°F2.0°C 80% 1.0 mph SE1.6 kmh SE 5.0 mph8.0 kmh 29.80 in1009.1 mb 0.00 in0.0 mm 0.00 in0.0 mm 0.00 in0.0 mm
07:45 PM 41.3°F5.2°C 35.6°F2.0°C 80% 2.0 mph ESE3.2 kmh ESE 6.0 mph9.7 kmh 29.81 in1009.5 mb 0.00 in0.0 mm 0.00 in0.0 mm 0.00 in0.0 mm
07:50 PM 41.1°F5.1°C 35.4°F1.9°C 80% 2.0 mph S3.2 kmh S 5.0 mph8.0 kmh 29.80 in1009.1 mb 0.00 in0.0 mm 0.00 in0.0 mm 0.00 in0.0 mm
07:55 PM 41.1°F5.1°C 35.7°F2.1°C 81% 3.0 mph SE4.8 kmh SE 6.0 mph9.7 kmh 29.80 in1009.1 mb 0.00 in0.0 mm 0.00 in0.0 mm 0.00 in0.0 mm
08:00 PM 40.9°F4.9°C 35.5°F1.9°C 81% 1.0 mph SE1.6 kmh SE 4.0 mph6.4 kmh 29.81 in1009.5 mb 0.00 in0.0 mm 0.00 in0.0 mm 0.00 in0.0 mm
08:05 PM 40.9°F4.9°C 35.5°F1.9°C 81% 2.0 mph SSE3.2 kmh SSE 6.0 mph9.7 kmh 29.82 in1009.8 mb 0.00 in0.0 mm 0.00 in0.0 mm 0.00 in0.0 mm
08:10 PM 40.9°F4.9°C 35.5°F1.9°C 81% 6.0 mph SE9.7 kmh SE 6.0 mph9.7 kmh 29.82 in1009.8 mb 0.00 in0.0 mm 0.00 in0.0 mm 0.00 in0.0 mm
08:15 PM 40.9°F4.9°C 35.5°F1.9°C 81% 4.0 mph SE6.4 kmh SE 6.0 mph9.7 kmh 29.82 in1009.8 mb 0.00 in0.0 mm 0.00 in0.0 mm 0.00 in0.0 mm
08:20 PM 40.9°F4.9°C 35.5°F1.9°C 81% 6.0 mph SE9.7 kmh SE 9.0 mph14.5 kmh 29.82 in1009.8 mb 0.00 in0.0 mm 0.00 in0.0 mm 0.00 in0.0 mm
08:25 PM 40.9°F4.9°C 35.5°F1.9°C 81% 5.0 mph SE8.0 kmh SE 9.0 mph14.5 kmh 29.83 in1010.2 mb 0.00 in0.0 mm 0.00 in0.0 mm 0.00 in0.0 mm
08:30 PM 41.0°F5.0°C 35.6°F2.0°C 81% 4.0 mph SE6.4 kmh SE 9.0 mph14.5 kmh 29.82 in1009.8 mb 0.00 in0.0 mm 0.00 in0.0 mm 0.00 in0.0 mm
08:35 PM 41.0°F5.0°C 35.6°F2.0°C 81% 2.0 mph SE3.2 kmh SE 6.0 mph9.7 kmh 29.82 in1009.8 mb 0.00 in0.0 mm 0.00 in0.0 mm 0.00 in0.0 mm
08:40 PM 41.0°F5.0°C 35.6°F2.0°C 81% 2.0 mph SE3.2 kmh SE 5.0 mph8.0 kmh 29.83 in1010.2 mb 0.00 in0.0 mm 0.00 in0.0 mm 0.00 in0.0 mm
08:45 PM 41.0°F5.0°C 35.6°F2.0°C 81% 2.0 mph SE3.2 kmh SE 6.0 mph9.7 kmh 29.83 in1010.2 mb 0.00 in0.0 mm 0.00 in0.0 mm 0.00 in0.0 mm
08:50 PM 41.0°F5.0°C 35.6°F2.0°C 81% 4.0 mph SE6.4 kmh SE 6.0 mph9.7 kmh 29.83 in1010.2 mb 0.00 in0.0 mm 0.00 in0.0 mm 0.00 in0.0 mm
08:55 PM 41.0°F5.0°C 35.9°F2.2°C 82% Calm Calm 7.0 mph11.3 kmh 29.83 in1010.2 mb 0.00 in0.0 mm 0.00 in0.0 mm 0.00 in0.0 mm
09:00 PM 41.0°F5.0°C 35.6°F2.0°C 81% 3.0 mph SE4.8 kmh SE 5.0 mph8.0 kmh 29.83 in1010.2 mb 0.00 in0.0 mm 0.00 in0.0 mm 0.00 in0.0 mm
09:05 PM 41.1°F5.1°C 35.7°F2.1°C 81% 3.0 mph SE4.8 kmh SE 7.0 mph11.3 kmh 29.84 in1010.5 mb 0.00 in0.0 mm 0.00 in0.0 mm 0.00 in0.0 mm
09:10 PM 41.0°F5.0°C 35.6°F2.0°C 81% 4.0 mph SE6.4 kmh SE 8.0 mph12.9 kmh 29.84 in1010.5 mb 0.00 in0.0 mm 0.00 in0.0 mm 0.00 in0.0 mm
09:15 PM 40.9°F4.9°C 35.5°F1.9°C 81% 2.0 mph SE3.2 kmh SE 10.0 mph16.1 kmh 29.84 in1010.5 mb 0.00 in0.0 mm 0.00 in0.0 mm 0.00 in0.0 mm
09:20 PM 40.9°F4.9°C 35.5°F1.9°C 81% Calm Calm 6.0 mph9.7 kmh 29.83 in1010.2 mb 0.00 in0.0 mm 0.00 in0.0 mm 0.00 in0.0 mm
09:25 PM 40.9°F4.9°C 35.8°F2.1°C 82% 7.0 mph SE11.3 kmh SE 9.0 mph14.5 kmh 29.84 in1010.5 mb 0.00 in0.0 mm 0.00 in0.0 mm 0.00 in0.0 mm
09:30 PM 40.9°F4.9°C 35.8°F2.1°C 82% 3.0 mph ESE4.8 kmh ESE 7.0 mph11.3 kmh 29.84 in1010.5 mb 0.00 in0.0 mm 0.00 in0.0 mm 0.00 in0.0 mm
09:35 PM 40.8°F4.9°C 35.7°F2.1°C 82% 2.0 mph SE3.2 kmh SE 6.0 mph9.7 kmh 29.84 in1010.5 mb 0.00 in0.0 mm 0.00 in0.0 mm 0.00 in0.0 mm
09:40 PM 40.8°F4.9°C 35.7°F2.1°C 82% 4.0 mph SE6.4 kmh SE 9.0 mph14.5 kmh 29.85 in1010.8 mb 0.00 in0.0 mm 0.00 in0.0 mm 0.00 in0.0 mm
09:45 PM 40.8°F4.9°C 35.7°F2.1°C 82% 1.0 mph SE1.6 kmh SE 6.0 mph9.7 kmh 29.85 in1010.8 mb 0.00 in0.0 mm 0.00 in0.0 mm 0.00 in0.0 mm
09:50 PM 40.8°F4.9°C 35.7°F2.1°C 82% 5.0 mph SSE8.0 kmh SSE 9.0 mph14.5 kmh 29.85 in1010.8 mb 0.00 in0.0 mm 0.00 in0.0 mm 0.00 in0.0 mm
09:55 PM 40.8°F4.9°C 35.7°F2.1°C 82% 5.0 mph SE8.0 kmh SE 7.0 mph11.3 kmh 29.85 in1010.8 mb 0.00 in0.0 mm 0.00 in0.0 mm 0.00 in0.0 mm
10:00 PM 40.9°F4.9°C 35.8°F2.1°C 82% 3.0 mph SE4.8 kmh SE 9.0 mph14.5 kmh 29.85 in1010.8 mb 0.00 in0.0 mm 0.00 in0.0 mm 0.00 in0.0 mm
10:05 PM 40.9°F4.9°C 35.8°F2.1°C 82% 3.0 mph SE4.8 kmh SE 6.0 mph9.7 kmh 29.86 in1011.2 mb 0.00 in0.0 mm 0.00 in0.0 mm 0.00 in0.0 mm
10:10 PM 40.9°F4.9°C 35.8°F2.1°C 82% 2.0 mph ESE3.2 kmh ESE 7.0 mph11.3 kmh 29.86 in1011.2 mb 0.00 in0.0 mm 0.00 in0.0 mm 0.00 in0.0 mm
10:15 PM 41.0°F5.0°C 35.9°F2.2°C 82% 2.0 mph ESE3.2 kmh ESE 5.0 mph8.0 kmh 29.86 in1011.2 mb 0.00 in0.0 mm 0.00 in0.0 mm 0.00 in0.0 mm
10:20 PM 41.0°F5.0°C 35.9°F2.2°C 82% Calm Calm 7.0 mph11.3 kmh 29.86 in1011.2 mb 0.00 in0.0 mm 0.00 in0.0 mm 0.00 in0.0 mm
10:25 PM 40.9°F4.9°C 35.8°F2.1°C 82% 2.0 mph SE3.2 kmh SE 6.0 mph9.7 kmh 29.86 in1011.2 mb 0.00 in0.0 mm 0.00 in0.0 mm 0.00 in0.0 mm
10:30 PM 40.8°F4.9°C 35.7°F2.1°C 82% 2.0 mph SSE3.2 kmh SSE 6.0 mph9.7 kmh 29.86 in1011.2 mb 0.00 in0.0 mm 0.00 in0.0 mm 0.00 in0.0 mm
10:35 PM 40.8°F4.9°C 35.7°F2.1°C 82% Calm Calm 6.0 mph9.7 kmh 29.86 in1011.2 mb 0.00 in0.0 mm 0.00 in0.0 mm 0.00 in0.0 mm
10:40 PM 40.8°F4.9°C 35.7°F2.1°C 82% 4.0 mph ESE6.4 kmh ESE 6.0 mph9.7 kmh 29.87 in1011.5 mb 0.00 in0.0 mm 0.00 in0.0 mm 0.00 in0.0 mm
10:45 PM 40.8°F4.9°C 35.7°F2.1°C 82% 1.0 mph SE1.6 kmh SE 5.0 mph8.0 kmh 29.87 in1011.5 mb 0.00 in0.0 mm 0.00 in0.0 mm 0.00 in0.0 mm
10:50 PM 40.7°F4.8°C 35.6°F2.0°C 82% 3.0 mph SE4.8 kmh SE 6.0 mph9.7 kmh 29.88 in1011.9 mb 0.00 in0.0 mm 0.00 in0.0 mm 0.00 in0.0 mm
10:55 PM 40.6°F4.8°C 35.8°F2.1°C 83% 1.0 mph SSE1.6 kmh SSE 5.0 mph8.0 kmh 29.87 in1011.5 mb 0.00 in0.0 mm 0.00 in0.0 mm 0.00 in0.0 mm
11:00 PM 40.6°F4.8°C 35.8°F2.1°C 83% 1.0 mph SE1.6 kmh SE 4.0 mph6.4 kmh 29.88 in1011.9 mb 0.00 in0.0 mm 0.00 in0.0 mm 0.00 in0.0 mm
11:05 PM 40.4°F4.7°C 35.6°F2.0°C 83% 1.0 mph SE1.6 kmh SE 4.0 mph6.4 kmh 29.88 in1011.9 mb 0.00 in0.0 mm 0.00 in0.0 mm 0.00 in0.0 mm
11:10 PM 40.3°F4.6°C 35.5°F1.9°C 83% Calm Calm 4.0 mph6.4 kmh 29.88 in1011.9 mb 0.00 in0.0 mm 0.00 in0.0 mm 0.00 in0.0 mm
11:15 PM 40.3°F4.6°C 35.8°F2.1°C 84% Calm Calm 4.0 mph6.4 kmh 29.88 in1011.9 mb 0.00 in0.0 mm 0.00 in0.0 mm 0.00 in0.0 mm
11:20 PM 40.2°F4.6°C 35.7°F2.1°C 84% Calm Calm 2.0 mph3.2 kmh 29.89 in1012.2 mb 0.00 in0.0 mm 0.00 in0.0 mm 0.00 in0.0 mm
11:25 PM 40.0°F4.4°C 35.5°F1.9°C 84% 1.0 mph SSE1.6 kmh SSE 3.0 mph4.8 kmh 29.89 in1012.2 mb 0.00 in0.0 mm 0.00 in0.0 mm 0.00 in0.0 mm
11:30 PM 39.8°F4.3°C 35.3°F1.8°C 84% Calm Calm 2.0 mph3.2 kmh 29.90 in1012.5 mb 0.00 in0.0 mm 0.00 in0.0 mm 0.00 in0.0 mm
11:35 PM 39.6°F4.2°C 35.1°F1.7°C 84% Calm Calm 3.0 mph4.8 kmh 29.90 in1012.5 mb 0.00 in0.0 mm 0.00 in0.0 mm 0.00 in0.0 mm
11:40 PM 39.5°F4.2°C 35.3°F1.8°C 85% Calm Calm 1.0 mph1.6 kmh 29.90 in1012.5 mb 0.00 in0.0 mm 0.00 in0.0 mm 0.00 in0.0 mm
11:45 PM 39.2°F4.0°C 35.0°F1.7°C 85% Calm Calm 1.0 mph1.6 kmh 29.90 in1012.5 mb 0.00 in0.0 mm 0.00 in0.0 mm 0.00 in0.0 mm
11:50 PM 39.1°F3.9°C 34.9°F1.6°C 85% Calm Calm 2.0 mph3.2 kmh 29.91 in1012.9 mb 0.00 in0.0 mm 0.00 in0.0 mm 0.00 in0.0 mm
11:55 PM 39.1°F3.9°C 34.9°F1.6°C 85% Calm Calm 1.0 mph1.6 kmh 29.91 in1012.9 mb 0.00 in0.0 mm 0.00 in0.0 mm 0.00 in0.0 mm